Time;durP1;ratioP1;P1;durP2;ratioP2;P2;SDS_P1;SDS_P2;PMS_P1;PMS_P2;Temp;Humidity;BMP_temperature;BMP_pressure;BME280_temperature;BME280_humidity;BME280_pressure;Samples;Min_cycle;Max_cycle;Signal;HPM_P1;HPM_P2
2021/12/31 00:02:21;;;;;;;5.88;3.70;;;;;;;9.57;100.00;97451.41;5053804;28;20049;-64
2021/12/31 00:04:47;;;;;;;6.15;3.28;;;;;;;9.51;100.00;97450.06;5045557;28;20421;-65
2021/12/31 00:07:13;;;;;;;6.45;3.88;;;;;;;9.47;100.00;97452.69;5027517;28;20722;-64
2021/12/31 00:09:38;;;;;;;8.13;3.97;;;;;;;9.46;100.00;97450.28;5035676;28;20033;-63
2021/12/31 00:12:07;;;;;;;6.82;3.88;;;;;;;9.39;100.00;97445.38;5031649;28;20049;-62
2021/12/31 00:14:37;;;;;;;7.22;4.43;;;;;;;9.26;100.00;97450.03;5034842;28;20142;-64
2021/12/31 00:17:03;;;;;;;5.95;4.13;;;;;;;9.14;100.00;97450.78;5033451;28;20095;-61
2021/12/31 00:19:32;;;;;;;10.48;4.50;;;;;;;9.08;100.00;97452.16;5031580;28;20060;-64
2021/12/31 00:22:00;;;;;;;8.95;4.82;;;;;;;9.09;100.00;97448.28;5034211;28;20068;-65
2021/12/31 00:24:27;;;;;;;7.65;4.75;;;;;;;9.09;100.00;97451.03;5030679;28;20045;-65
2021/12/31 00:26:52;;;;;;;6.10;3.95;;;;;;;9.11;100.00;97453.41;5034812;28;20591;-63
2021/12/31 00:29:18;;;;;;;11.38;4.57;;;;;;;9.11;100.00;97456.13;5029829;28;20029;-66
2021/12/31 00:31:43;;;;;;;10.48;4.25;;;;;;;9.16;100.00;97453.19;5035036;28;20037;-63
2021/12/31 00:34:08;;;;;;;8.00;4.47;;;;;;;9.20;100.00;97451.38;5030628;28;20576;-64
2021/12/31 00:36:41;;;;;;;8.02;4.28;;;;;;;9.21;100.00;97454.91;5030292;28;20036;-64
2021/12/31 00:39:07;;;;;;;8.95;4.25;;;;;;;9.33;100.00;97452.22;4996877;28;59217;-64
2021/12/31 00:41:32;;;;;;;7.00;3.97;;;;;;;9.34;100.00;97449.09;5000009;28;20560;-65
2021/12/31 00:43:58;;;;;;;9.13;4.25;;;;;;;9.51;100.00;97450.84;4990990;28;20111;-64
2021/12/31 00:46:23;;;;;;;20.98;6.25;;;;;;;9.64;100.00;97445.38;4994301;28;20634;-65
2021/12/31 00:48:48;;;;;;;18.63;5.72;;;;;;;9.61;100.00;97452.31;4999717;28;20120;-65
2021/12/31 00:51:14;;;;;;;7.93;4.03;;;;;;;9.60;100.00;97447.19;4992254;28;20416;-66
2021/12/31 00:53:39;;;;;;;7.57;4.05;;;;;;;9.61;100.00;97448.78;4999543;28;20046;-65
2021/12/31 00:56:05;;;;;;;7.43;4.50;;;;;;;9.65;100.00;97447.78;4988033;28;20046;-62
2021/12/31 00:58:30;;;;;;;5.68;3.75;;;;;;;9.63;100.00;97449.25;4984361;28;20395;-65
2021/12/31 01:00:55;;;;;;;7.07;4.13;;;;;;;9.71;100.00;97448.34;5000661;28;20044;-66
2021/12/31 01:03:21;;;;;;;7.03;4.78;;;;;;;9.82;100.00;97448.69;4997920;28;20065;-66
2021/12/31 01:05:46;;;;;;;7.43;4.13;;;;;;;9.77;100.00;97452.44;5001631;28;20131;-68
2021/12/31 01:08:12;;;;;;;6.07;3.60;;;;;;;9.63;100.00;97449.25;4996175;28;20090;-66
2021/12/31 01:10:37;;;;;;;10.20;4.55;;;;;;;9.57;100.00;97445.94;5003535;28;20081;-66
2021/12/31 01:13:09;;;;;;;6.20;3.88;;;;;;;9.47;100.00;97449.94;5001279;28;20038;-63
2021/12/31 01:15:38;;;;;;;12.95;4.95;;;;;;;9.19;100.00;97450.56;5003028;28;20042;-65
2021/12/31 01:18:18;;;;;;;;;;;;;;;9.20;100.00;97448.66;4999074;28;20545;-64
2021/12/31 01:20:44;;;;;;;34.83;10.18;;;;;;;9.23;100.00;97449.91;4996301;28;19924;-66
2021/12/31 01:23:10;;;;;;;15.25;5.15;;;;;;;9.13;100.00;97454.66;4979108;28;20046;-66
2021/12/31 01:25:36;;;;;;;7.00;4.20;;;;;;;9.10;100.00;97455.34;4963607;28;20505;-66
2021/12/31 01:28:02;;;;;;;6.28;3.75;;;;;;;9.09;100.00;97452.94;4963640;28;20070;-66
2021/12/31 01:30:27;;;;;;;6.75;3.35;;;;;;;9.02;100.00;97453.50;4996750;28;20069;-66
2021/12/31 01:32:55;;;;;;;6.15;3.47;;;;;;;8.89;100.00;97449.13;5019439;28;20148;-65
2021/12/31 01:35:20;;;;;;;7.63;3.90;;;;;;;8.73;100.00;97447.06;5003349;28;20037;-65
2021/12/31 01:37:46;;;;;;;6.93;3.45;;;;;;;8.74;100.00;97451.38;5014807;28;20042;-67
2021/12/31 01:40:12;;;;;;;6.50;3.70;;;;;;;8.73;100.00;97444.31;4996719;28;20072;-65
2021/12/31 01:42:38;;;;;;;5.93;3.83;;;;;;;8.66;100.00;97438.59;5008546;28;20115;-67
2021/12/31 01:45:15;;;;;;;7.22;4.50;;;;;;;8.59;100.00;97438.34;5017844;28;20356;-63
2021/12/31 01:48:06;;;;;;;7.32;4.25;;;;;;;8.52;100.00;97447.06;5021908;28;20132;-66
2021/12/31 01:50:33;;;;;;;10.15;4.43;;;;;;;8.44;100.00;97433.50;5019079;28;20049;-67
2021/12/31 01:52:59;;;;;;;6.78;3.70;;;;;;;8.42;100.00;97431.09;5022331;28;20542;-66
2021/12/31 01:55:28;;;;;;;9.80;4.13;;;;;;;8.32;100.00;97426.81;5020595;28;20152;-67
2021/12/31 01:57:55;;;;;;;4.70;3.40;;;;;;;8.21;100.00;97423.69;5024626;28;20045;-65
2021/12/31 02:00:21;;;;;;;7.70;3.50;;;;;;;8.18;100.00;97427.09;5010842;28;20437;-66
2021/12/31 02:02:47;;;;;;;9.15;4.10;;;;;;;8.10;100.00;97427.94;5001975;28;20049;-66
2021/12/31 02:05:13;;;;;;;6.65;3.80;;;;;;;8.08;100.00;97418.50;4996495;28;20074;-65
2021/12/31 02:07:39;;;;;;;6.50;3.40;;;;;;;8.07;100.00;97425.91;5009069;28;20154;-65
2021/12/31 02:10:06;;;;;;;5.40;3.20;;;;;;;8.05;100.00;97425.44;5016565;28;20195;-64
2021/12/31 02:12:32;;;;;;;5.25;3.20;;;;;;;8.04;100.00;97421.88;5020485;28;20041;-65
2021/12/31 02:14:58;;;;;;;5.78;3.25;;;;;;;7.89;100.00;97422.50;5013250;28;20397;-67
2021/12/31 02:17:23;;;;;;;7.60;3.20;;;;;;;7.78;100.00;97422.09;4997699;28;20303;-65
2021/12/31 02:19:55;;;;;;;5.30;3.30;;;;;;;7.62;100.00;97424.56;5020198;28;20378;-66
2021/12/31 02:22:26;;;;;;;5.18;3.67;;;;;;;7.52;100.00;97422.22;5014141;28;20123;-67
2021/12/31 02:24:52;;;;;;;7.45;3.92;;;;;;;7.42;100.00;97428.84;5016719;28;20094;-65
2021/12/31 02:27:17;;;;;;;5.35;3.60;;;;;;;7.36;100.00;97432.88;5014065;28;20140;-66
2021/12/31 02:29:42;;;;;;;8.10;3.90;;;;;;;7.27;100.00;97429.38;5018907;28;20049;-65
2021/12/31 02:32:08;;;;;;;6.20;4.07;;;;;;;7.19;100.00;97427.50;5010625;28;20065;-64
2021/12/31 02:34:33;;;;;;;4.93;3.17;;;;;;;7.12;100.00;97427.22;5018722;28;20124;-65
2021/12/31 02:36:59;;;;;;;6.20;3.63;;;;;;;7.07;100.00;97425.47;5018560;28;20033;-65
2021/12/31 02:39:24;;;;;;;5.45;3.50;;;;;;;7.02;100.00;97429.19;5011676;28;20072;-65
2021/12/31 02:41:49;;;;;;;6.53;4.00;;;;;;;6.94;100.00;97424.53;5019696;28;20040;-65
2021/12/31 02:44:15;;;;;;;6.22;3.65;;;;;;;6.91;100.00;97429.84;5011949;28;20037;-63
2021/12/31 02:46:40;;;;;;;5.75;3.85;;;;;;;6.93;100.00;97430.31;5016896;28;20034;-64
2021/12/31 02:49:06;;;;;;;6.53;4.03;;;;;;;6.95;100.00;97423.44;5012148;28;20111;-64
2021/12/31 02:51:31;;;;;;;6.68;3.88;;;;;;;7.01;100.00;97426.78;5001326;28;20037;-65
2021/12/31 02:53:58;;;;;;;5.03;3.40;;;;;;;7.06;100.00;97418.44;5016546;28;20641;-65
2021/12/31 02:56:24;;;;;;;7.38;4.03;;;;;;;7.05;100.00;97423.06;5017392;28;20037;-64
2021/12/31 02:58:50;;;;;;;5.57;3.55;;;;;;;7.06;100.00;97423.88;5029895;28;20451;-65
2021/12/31 03:01:17;;;;;;;8.38;4.03;;;;;;;7.05;100.00;97420.34;5020177;28;20045;-63
2021/12/31 03:03:45;;;;;;;5.57;3.22;;;;;;;7.03;100.00;97424.53;5022580;28;20559;-65
2021/12/31 03:06:12;;;;;;;5.13;3.30;;;;;;;6.93;100.00;97416.69;5012984;28;20047;-64
2021/12/31 03:08:45;;;;;;;5.50;3.40;;;;;;;6.83;100.00;97412.41;5019280;28;20038;-65
2021/12/31 03:11:12;;;;;;;5.93;3.75;;;;;;;6.73;100.00;97410.81;5011123;28;20037;-63
2021/12/31 03:13:39;;;;;;;5.45;3.67;;;;;;;6.71;100.00;97402.16;5020709;28;20041;-62
2021/12/31 03:16:07;;;;;;;5.50;3.67;;;;;;;6.73;100.00;97405.38;4994922;28;20049;-63
2021/12/31 03:18:34;;;;;;;5.63;3.58;;;;;;;6.72;100.00;97403.78;5016275;28;20483;-64
2021/12/31 03:21:08;;;;;;;5.05;3.15;;;;;;;6.75;100.00;97399.59;5016163;28;20033;-65
2021/12/31 03:23:34;;;;;;;5.30;3.13;;;;;;;6.75;100.00;97399.59;5015018;28;20049;-66
2021/12/31 03:26:00;;;;;;;4.10;2.83;;;;;;;6.79;100.00;97401.38;5019325;28;20461;-65
2021/12/31 03:28:26;;;;;;;8.20;2.65;;;;;;;6.84;100.00;97400.38;5010825;28;20048;-65
2021/12/31 03:30:52;;;;;;;6.07;3.50;;;;;;;6.93;100.00;97401.13;5015527;28;20045;-62
2021/12/31 03:33:18;;;;;;;5.60;3.20;;;;;;;6.97;100.00;97404.00;5010840;28;20046;-62
2021/12/31 03:35:44;;;;;;;4.30;2.88;;;;;;;6.98;100.00;97402.91;5017482;28;20033;-65
2021/12/31 03:38:11;;;;;;;4.05;2.95;;;;;;;7.05;100.00;97397.75;5010533;28;20517;-64
2021/12/31 03:40:38;;;;;;;3.88;2.28;;;;;;;6.95;100.00;97396.19;5023194;28;20042;-66
2021/12/31 03:43:04;;;;;;;4.25;2.50;;;;;;;6.96;100.00;97399.72;5027520;28;20124;-60
2021/12/31 03:45:30;;;;;;;3.42;1.80;;;;;;;6.97;100.00;97393.94;5030804;28;20038;-64
2021/12/31 03:47:55;;;;;;;2.97;2.10;;;;;;;7.02;100.00;97393.75;5021737;28;20107;-65
2021/12/31 03:50:21;;;;;;;3.30;2.35;;;;;;;7.04;100.00;97393.41;5011733;28;20652;-65
2021/12/31 03:52:47;;;;;;;3.40;2.03;;;;;;;7.07;100.00;97392.78;5016155;28;20037;-66
2021/12/31 03:55:12;;;;;;;4.78;2.10;;;;;;;7.14;100.00;97390.34;5005645;28;20503;-66
2021/12/31 03:57:38;;;;;;;3.15;1.98;;;;;;;7.21;100.00;97385.19;5017324;28;20076;-64
2021/12/31 04:00:10;;;;;;;3.35;2.13;;;;;;;7.27;100.00;97381.16;5008694;28;20602;-61
2021/12/31 04:02:35;;;;;;;6.95;2.83;;;;;;;7.39;100.00;97383.16;5017645;28;20361;-64
2021/12/31 04:05:02;;;;;;;5.13;2.38;;;;;;;7.40;100.00;97389.41;5015706;28;20055;-65
2021/12/31 04:07:27;;;;;;;4.22;2.58;;;;;;;7.44;100.00;97382.19;5014107;28;20130;-64
2021/12/31 04:09:53;;;;;;;5.53;2.28;;;;;;;7.40;100.00;97378.50;5013440;28;20069;-64
2021/12/31 04:12:18;;;;;;;2.78;1.73;;;;;;;7.39;100.00;97391.34;5007725;28;20037;-62
2021/12/31 04:14:44;;;;;;;4.18;2.15;;;;;;;7.44;100.00;97380.25;5016487;28;20652;-64
2021/12/31 04:17:10;;;;;;;3.38;2.00;;;;;;;7.38;100.00;97372.59;5010569;28;20060;-63
2021/12/31 04:19:36;;;;;;;6.70;2.45;;;;;;;7.60;100.00;97368.78;5015167;28;20096;-64
2021/12/31 04:22:02;;;;;;;2.55;1.50;;;;;;;7.50;100.00;97361.00;5016823;28;20065;-66
2021/12/31 04:24:50;;;;;;;2.42;1.63;;;;;;;7.44;100.00;97366.63;5014080;28;20060;-65
2021/12/31 04:27:13;;;;;;;2.47;1.55;;;;;;;7.35;100.00;97363.16;5016322;28;20117;-64
2021/12/31 04:29:40;;;;;;;2.67;2.00;;;;;;;7.38;100.00;97364.41;5039864;28;20045;-65
2021/12/31 04:32:06;;;;;;;5.32;2.00;;;;;;;7.40;100.00;97373.06;5035666;28;20029;-64
2021/12/31 04:34:32;;;;;;;6.75;2.50;;;;;;;7.41;100.00;97369.22;5029008;28;20082;-68
2021/12/31 04:36:58;;;;;;;4.75;2.35;;;;;;;7.46;100.00;97366.31;5032518;28;20316;-66
2021/12/31 04:39:24;;;;;;;4.75;2.15;;;;;;;7.51;100.00;97363.41;5023834;28;20783;-66
2021/12/31 04:41:50;;;;;;;2.75;1.80;;;;;;;7.54;100.00;97367.38;5028893;28;20042;-67
2021/12/31 04:44:15;;;;;;;3.58;1.83;;;;;;;7.68;100.00;97356.22;5025010;28;20037;-67
2021/12/31 04:46:41;;;;;;;6.60;2.63;;;;;;;7.79;100.00;97357.41;5024332;28;20070;-66
2021/12/31 04:49:07;;;;;;;6.75;2.30;;;;;;;7.84;100.00;97355.28;5014847;28;20037;-64
2021/12/31 04:51:33;;;;;;;3.55;1.65;;;;;;;7.87;100.00;97363.94;5020520;28;20033;-65
2021/12/31 04:53:59;;;;;;;2.25;1.55;;;;;;;7.92;100.00;97361.81;5001968;28;20469;-66
2021/12/31 04:56:25;;;;;;;2.30;1.30;;;;;;;7.82;100.00;97360.28;5012683;28;20048;-66
2021/12/31 04:58:50;;;;;;;3.05;1.70;;;;;;;7.74;100.00;97354.88;5020392;28;20037;-65
2021/12/31 05:01:17;;;;;;;3.58;1.70;;;;;;;7.63;100.00;97347.13;5014741;28;20128;-64
2021/12/31 05:03:42;;;;;;;3.45;2.10;;;;;;;7.47;100.00;97349.63;5020027;28;20037;-65
2021/12/31 05:06:08;;;;;;;2.53;1.83;;;;;;;7.42;100.00;97351.75;5006922;28;20042;-64
2021/12/31 05:08:33;;;;;;;3.00;1.48;;;;;;;7.66;100.00;97351.88;5014264;28;20100;-65
2021/12/31 05:10:59;;;;;;;3.03;1.65;;;;;;;7.50;100.00;97350.88;5020490;28;20376;-64
2021/12/31 05:13:24;;;;;;;2.55;1.60;;;;;;;7.54;100.00;97351.00;5016420;28;20096;-65
2021/12/31 05:15:52;;;;;;;2.78;1.52;;;;;;;7.55;100.00;97350.69;5020249;28;20033;-65
2021/12/31 05:18:18;;;;;;;2.10;1.30;;;;;;;7.46;100.00;97349.94;4997169;28;20051;-64
2021/12/31 05:20:43;;;;;;;3.75;1.80;;;;;;;7.38;100.00;97343.44;5019819;28;20041;-65
2021/12/31 05:23:09;;;;;;;2.13;1.38;;;;;;;7.04;100.00;97338.94;5029686;28;20046;-63
2021/12/31 05:25:34;;;;;;;2.90;1.75;;;;;;;6.86;100.00;97332.78;5022158;28;20053;-65
2021/12/31 05:28:00;;;;;;;2.70;1.30;;;;;;;6.74;100.00;97333.47;5028709;28;20044;-65
2021/12/31 05:30:26;;;;;;;5.68;1.65;;;;;;;6.63;100.00;97346.63;4995588;28;20211;-65
2021/12/31 05:32:52;;;;;;;9.50;5.28;;;;;;;6.57;100.00;97341.69;5027133;28;20391;-63
2021/12/31 05:35:18;;;;;;;3.38;2.20;;;;;;;6.42;100.00;97346.53;4996329;28;20052;-64
2021/12/31 05:37:44;;;;;;;2.25;1.88;;;;;;;6.35;100.00;97348.94;5018872;28;20046;-65
2021/12/31 05:40:10;;;;;;;4.07;1.70;;;;;;;6.31;100.00;97351.50;5020080;28;20129;-63
2021/12/31 05:42:36;;;;;;;2.67;1.50;;;;;;;6.26;100.00;97350.88;5024948;28;20037;-64
2021/12/31 05:45:03;;;;;;;2.22;1.58;;;;;;;6.20;100.00;97360.34;5027649;28;20041;-61
2021/12/31 05:47:29;;;;;;;2.00;1.48;;;;;;;6.19;100.00;97358.72;5032997;28;20071;-64
2021/12/31 05:49:54;;;;;;;1.80;1.40;;;;;;;6.06;100.00;97369.44;5022211;28;20029;-62
2021/12/31 05:52:21;;;;;;;2.35;1.60;;;;;;;6.03;100.00;97366.56;5016537;28;20038;-67
2021/12/31 05:54:46;;;;;;;2.05;1.60;;;;;;;6.06;100.00;97366.72;5028166;28;20037;-65
2021/12/31 05:57:12;;;;;;;5.40;1.45;;;;;;;6.08;100.00;97367.19;5038338;28;20113;-65
2021/12/31 05:59:37;;;;;;;3.10;2.20;;;;;;;6.10;100.00;97354.09;5031140;28;20056;-65
2021/12/31 06:02:03;;;;;;;3.13;1.70;;;;;;;6.08;100.00;97359.03;5025344;28;20079;-63
2021/12/31 06:04:29;;;;;;;2.47;1.52;;;;;;;6.01;100.00;97360.66;5027583;28;20037;-64
2021/12/31 06:06:55;;;;;;;1.83;1.27;;;;;;;5.96;100.00;97352.66;5017867;28;20046;-66
2021/12/31 06:09:20;;;;;;;3.72;2.60;;;;;;;5.95;100.00;97354.56;5023250;28;20113;-65
2021/12/31 06:11:46;;;;;;;6.40;2.78;;;;;;;5.96;100.00;97360.81;5007912;28;20041;-65
2021/12/31 06:14:12;;;;;;;4.18;2.28;;;;;;;5.89;100.00;97356.63;5022068;28;20049;-68
2021/12/31 06:16:43;;;;;;;3.83;1.90;;;;;;;5.81;100.00;97365.56;5023425;28;20046;-65
2021/12/31 06:19:13;;;;;;;7.68;2.22;;;;;;;5.77;100.00;97358.38;5023378;28;20072;-64
2021/12/31 06:21:41;;;;;;;2.65;1.70;;;;;;;5.70;100.00;97359.66;5028077;28;20042;-66
2021/12/31 06:24:07;;;;;;;3.45;2.00;;;;;;;5.64;100.00;97368.28;5012545;28;20038;-66
2021/12/31 06:26:33;;;;;;;3.53;2.10;;;;;;;5.58;100.00;97364.91;5029105;28;20037;-66
2021/12/31 06:28:59;;;;;;;2.55;1.88;;;;;;;5.49;100.00;97364.09;5035383;28;20056;-66
2021/12/31 06:31:25;;;;;;;2.58;1.63;;;;;;;5.44;100.00;97373.22;5018663;28;20029;-66
2021/12/31 06:33:51;;;;;;;3.25;2.00;;;;;;;5.38;100.00;97373.66;5029139;28;20042;-65
2021/12/31 06:36:17;;;;;;;2.85;1.63;;;;;;;5.34;100.00;97374.28;5019366;28;20099;-66
2021/12/31 06:38:43;;;;;;;3.28;2.00;;;;;;;5.32;100.00;97373.81;5036959;28;20061;-66
2021/12/31 06:41:08;;;;;;;3.85;2.20;;;;;;;5.30;100.00;97376.03;5021376;28;20045;-66
2021/12/31 06:43:34;;;;;;;3.83;2.38;;;;;;;5.29;100.00;97376.34;5010724;28;20041;-66
2021/12/31 06:45:59;;;;;;;2.88;1.98;;;;;;;5.27;100.00;97373.16;5024681;28;20109;-67
2021/12/31 06:48:25;;;;;;;3.63;2.17;;;;;;;5.29;100.00;97373.63;5016240;28;20103;-67
2021/12/31 06:50:51;;;;;;;2.33;1.90;;;;;;;5.27;100.00;97381.31;5031160;28;20044;-65
2021/12/31 06:53:16;;;;;;;3.75;2.38;;;;;;;5.23;100.00;97372.19;5004154;28;20037;-66
2021/12/31 06:55:43;;;;;;;3.83;1.80;;;;;;;5.24;100.00;97363.75;5020241;28;20602;-66
2021/12/31 06:58:08;;;;;;;6.55;2.50;;;;;;;5.21;100.00;97366.28;5014045;28;20429;-66
2021/12/31 07:00:35;;;;;;;4.75;1.95;;;;;;;5.20;100.00;97365.47;5021906;28;20045;-66
2021/12/31 07:03:08;;;;;;;3.90;2.13;;;;;;;5.11;100.00;97357.31;5024314;28;20132;-67
2021/12/31 07:05:34;;;;;;;4.65;2.47;;;;;;;4.98;100.00;97367.16;5016423;28;20034;-67
2021/12/31 07:08:00;;;;;;;4.85;1.88;;;;;;;4.89;100.00;97368.22;5019578;28;20034;-66
2021/12/31 07:10:26;;;;;;;4.15;2.60;;;;;;;4.82;100.00;97370.59;5011430;28;20828;-65
2021/12/31 07:12:57;;;;;;;4.38;2.50;;;;;;;4.78;100.00;97381.28;5017687;28;20124;-66
2021/12/31 07:15:22;;;;;;;3.60;2.40;;;;;;;4.76;100.00;97380.78;5011706;28;20045;-63
2021/12/31 07:17:48;;;;;;;3.40;2.42;;;;;;;4.73;100.00;97379.50;5020375;28;20044;-67
2021/12/31 07:20:13;;;;;;;6.85;3.10;;;;;;;4.70;100.00;97382.84;5013635;28;20041;-67
2021/12/31 07:22:38;;;;;;;4.18;2.45;;;;;;;4.63;100.00;97374.34;5032800;28;20061;-65
2021/12/31 07:25:04;;;;;;;4.13;2.20;;;;;;;4.55;100.00;97378.59;5024785;28;20059;-62
2021/12/31 07:27:32;;;;;;;3.30;2.50;;;;;;;4.55;100.00;97383.22;4995499;28;20042;-65
2021/12/31 07:29:58;;;;;;;6.55;3.90;;;;;;;4.48;100.00;97382.88;5015168;28;20124;-64
2021/12/31 07:32:23;;;;;;;18.40;11.23;;;;;;;4.44;100.00;97396.25;5014028;28;20500;-66
2021/12/31 07:34:49;;;;;;;15.07;7.35;;;;;;;4.39;100.00;97396.38;5019443;28;20397;-67
2021/12/31 07:37:14;;;;;;;23.05;13.27;;;;;;;4.44;100.00;97396.25;5013675;28;20029;-66
2021/12/31 07:39:46;;;;;;;25.27;14.73;;;;;;;4.47;100.00;97400.28;5011496;28;20042;-66
2021/12/31 07:42:12;;;;;;;31.35;14.18;;;;;;;4.53;100.00;97382.75;5011153;28;20076;-65
2021/12/31 07:44:37;;;;;;;16.80;8.10;;;;;;;4.65;100.00;97393.81;5015879;28;20045;-65
2021/12/31 07:47:03;;;;;;;14.63;7.93;;;;;;;4.92;100.00;97402.91;4994156;28;20052;-62
2021/12/31 07:49:29;;;;;;;15.60;9.55;;;;;;;5.12;100.00;97393.41;5014411;28;20128;-65
2021/12/31 07:51:54;;;;;;;17.17;9.70;;;;;;;5.52;100.00;97396.88;5016697;28;20120;-66
2021/12/31 07:54:20;;;;;;;6.30;3.67;;;;;;;5.99;100.00;97398.25;5006734;28;20049;-66
2021/12/31 07:56:45;;;;;;;5.65;2.83;;;;;;;6.50;100.00;97408.31;5017294;28;20365;-66
2021/12/31 07:59:11;;;;;;;8.23;4.28;;;;;;;6.96;100.00;97408.66;5010009;28;20045;-67
2021/12/31 08:01:36;;;;;;;2.65;1.90;;;;;;;7.56;100.00;97408.72;5014267;28;20068;-66
2021/12/31 08:04:02;;;;;;;1.88;1.20;;;;;;;7.96;100.00;97409.13;5018342;28;20044;-64
2021/12/31 08:06:28;;;;;;;2.67;1.38;;;;;;;8.09;100.00;97415.44;5005753;28;20045;-64
2021/12/31 08:08:53;;;;;;;2.08;1.10;;;;;;;8.41;100.00;97413.09;5030189;28;20152;-63
2021/12/31 08:11:19;;;;;;;2.58;1.50;;;;;;;8.53;100.00;97410.44;5021347;28;20073;-66
2021/12/31 08:13:44;;;;;;;2.47;1.85;;;;;;;8.54;100.00;97417.50;5019380;28;20066;-65
2021/12/31 08:16:10;;;;;;;2.45;1.17;;;;;;;9.09;100.00;97409.22;5010465;28;20449;-66
2021/12/31 08:18:35;;;;;;;4.95;1.73;;;;;;;10.07;97.56;97419.34;5018779;28;20044;-66
2021/12/31 08:21:01;;;;;;;4.57;2.55;;;;;;;10.99;88.85;97411.34;5016863;28;20501;-68
2021/12/31 08:23:26;;;;;;;10.18;5.45;;;;;;;11.63;85.03;97426.66;5012582;28;20057;-67
2021/12/31 08:25:52;;;;;;;4.45;2.30;;;;;;;11.50;84.98;97418.88;5018757;28;20118;-67
2021/12/31 08:28:18;;;;;;;4.80;2.60;;;;;;;11.61;82.72;97417.19;5010532;28;20430;-68
2021/12/31 08:30:43;;;;;;;4.60;2.60;;;;;;;12.30;79.39;97412.09;5017098;28;20037;-67
2021/12/31 08:33:09;;;;;;;6.38;2.30;;;;;;;12.70;77.87;97421.94;5013249;28;20045;-67
2021/12/31 08:35:35;;;;;;;3.92;2.13;;;;;;;13.17;75.69;97409.81;5008498;28;20047;-67
2021/12/31 08:38:00;;;;;;;4.32;2.05;;;;;;;12.25;76.27;97412.38;5015483;28;20056;-66
2021/12/31 08:40:26;;;;;;;3.75;2.17;;;;;;;12.60;79.15;97415.06;5013015;28;20522;-66
2021/12/31 08:42:52;;;;;;;4.55;1.92;;;;;;;12.46;76.67;97414.78;5017864;28;20527;-68
2021/12/31 08:45:19;;;;;;;2.83;1.52;;;;;;;13.05;75.73;97409.22;5009574;28;20042;-67
2021/12/31 08:47:44;;;;;;;3.45;1.90;;;;;;;13.12;73.35;97412.09;5016591;28;20037;-68
2021/12/31 08:50:10;;;;;;;6.13;1.70;;;;;;;13.28;72.23;97415.50;5010223;28;20048;-68
2021/12/31 08:52:35;;;;;;;8.98;1.88;;;;;;;13.53;70.33;97415.16;5017530;28;20039;-67
2021/12/31 08:55:01;;;;;;;3.38;1.98;;;;;;;13.95;69.19;97417.78;5021142;28;20041;-67
2021/12/31 08:57:26;;;;;;;3.17;2.00;;;;;;;14.46;65.02;97426.75;5020425;28;20041;-68
2021/12/31 08:59:52;;;;;;;2.42;1.58;;;;;;;14.75;64.00;97405.84;5020794;28;20450;-66
2021/12/31 09:02:17;;;;;;;6.07;1.70;;;;;;;13.74;65.21;97412.75;5005932;28;20132;-67
2021/12/31 09:04:43;;;;;;;3.90;2.25;;;;;;;12.49;71.68;97405.81;5015698;28;20041;-67
2021/12/31 09:07:08;;;;;;;7.68;4.70;;;;;;;11.82;75.43;97422.38;5010043;28;20033;-67
2021/12/31 09:09:34;;;;;;;10.75;5.72;;;;;;;12.00;75.03;97409.09;4999838;28;20120;-67
2021/12/31 09:11:59;;;;;;;5.63;2.08;;;;;;;11.90;75.29;97402.19;5016054;28;20037;-68
2021/12/31 09:14:24;;;;;;;4.43;2.97;;;;;;;11.48;76.36;97408.25;4994437;28;20049;-68
2021/12/31 09:16:51;;;;;;;4.85;3.60;;;;;;;11.68;77.13;97409.13;5016444;28;20067;-68
2021/12/31 09:19:16;;;;;;;4.47;2.35;;;;;;;12.15;76.74;97410.19;5019443;28;20043;-69
2021/12/31 09:21:42;;;;;;;3.97;2.38;;;;;;;12.45;74.82;97420.63;5021232;28;20037;-65
2021/12/31 09:24:08;;;;;;;5.28;4.30;;;;;;;13.40;72.92;97420.06;5015496;28;20104;-67
2021/12/31 09:26:34;;;;;;;3.72;1.80;;;;;;;14.08;67.21;97423.88;5018754;28;20048;-66
2021/12/31 09:28:59;;;;;;;5.13;2.40;;;;;;;14.57;65.94;97422.16;5021426;28;20044;-67
2021/12/31 09:31:25;;;;;;;3.00;1.42;;;;;;;15.32;63.25;97422.16;5014443;28;20049;-68
2021/12/31 09:33:50;;;;;;;2.67;1.58;;;;;;;15.33;61.71;97422.97;5018813;28;20438;-66
2021/12/31 09:36:16;;;;;;;3.55;2.03;;;;;;;15.34;61.80;97419.03;5014220;28;20125;-67
2021/12/31 09:38:41;;;;;;;6.97;4.50;;;;;;;15.34;62.30;97421.78;5019344;28;20034;-67
2021/12/31 09:41:07;;;;;;;4.78;3.30;;;;;;;13.86;65.76;97413.69;5012988;28;20045;-64
2021/12/31 09:43:33;;;;;;;5.13;2.45;;;;;;;14.78;64.00;97415.31;5021396;28;20045;-65
2021/12/31 09:45:58;;;;;;;4.07;2.38;;;;;;;15.31;63.54;97417.06;5018549;28;20045;-67
2021/12/31 09:48:24;;;;;;;3.65;2.50;;;;;;;15.28;62.25;97411.09;5012650;28;20049;-66
2021/12/31 09:50:54;;;;;;;4.18;2.33;;;;;;;15.57;62.71;97407.78;5007510;28;20041;-66
2021/12/31 09:53:20;;;;;;;4.70;2.58;;;;;;;16.16;59.92;97405.06;5012168;28;20080;-66
2021/12/31 09:55:48;;;;;;;5.53;2.80;;;;;;;16.79;58.58;97412.03;5007341;28;20076;-67
2021/12/31 09:58:15;;;;;;;4.95;2.20;;;;;;;16.10;61.03;97414.88;5009111;28;20068;-65
2021/12/31 10:00:48;;;;;;;3.55;2.10;;;;;;;16.01;61.00;97424.31;5009805;28;20046;-67
2021/12/31 10:03:17;;;;;;;4.18;2.30;;;;;;;16.33;61.10;97423.72;5007142;28;20072;-67
2021/12/31 10:05:44;;;;;;;4.40;2.70;;;;;;;16.92;58.11;97425.56;5016176;28;20052;-66
2021/12/31 10:08:22;;;;;;;4.28;2.40;;;;;;;16.88;57.93;97425.53;5006338;28;20092;-65
2021/12/31 10:11:04;;;;;;;2.88;2.10;;;;;;;16.39;59.23;97416.63;5013733;28;20490;-65
2021/12/31 10:13:31;;;;;;;3.55;2.28;;;;;;;15.12;63.43;97420.78;5007557;28;20376;-66
2021/12/31 10:15:56;;;;;;;3.33;2.05;;;;;;;15.34;63.66;97427.31;5020781;28;20095;-65
2021/12/31 10:18:49;;;;;;;7.25;2.80;;;;;;;15.63;63.45;97417.31;5011887;28;20049;-66
2021/12/31 10:21:19;;;;;;;3.45;2.30;;;;;;;15.83;63.59;97410.38;5012567;28;20106;-66
2021/12/31 10:23:46;;;;;;;7.32;1.98;;;;;;;16.03;61.57;97410.91;5019558;28;20042;-67
2021/12/31 10:26:17;;;;;;;3.80;1.85;;;;;;;15.51;63.76;97412.88;4993790;28;20533;-66
2021/12/31 10:28:55;;;;;;;2.63;1.70;;;;;;;16.16;61.92;97413.34;5015992;28;20072;-67
2021/12/31 10:31:20;;;;;;;3.70;2.00;;;;;;;16.57;60.22;97408.41;5015452;28;20044;-68
2021/12/31 10:33:47;;;;;;;3.00;1.77;;;;;;;16.68;59.62;97400.16;5002733;28;20046;-68
2021/12/31 10:36:32;;;;;;;4.25;2.22;;;;;;;16.02;61.35;97400.25;5015483;28;20128;-67
2021/12/31 10:39:14;;;;;;;2.40;1.55;;;;;;;16.67;60.37;97395.00;5019270;28;20072;-68
2021/12/31 10:41:40;;;;;;;4.18;1.92;;;;;;;17.02;58.93;97393.56;5010586;28;20042;-67
2021/12/31 10:44:05;;;;;;;4.38;2.13;;;;;;;14.13;68.73;97400.72;5013926;28;20119;-68
2021/12/31 10:46:31;;;;;;;2.90;2.00;;;;;;;14.69;70.04;97402.63;5020284;28;20041;-68
2021/12/31 10:49:00;;;;;;;2.65;1.60;;;;;;;15.79;65.60;97406.81;5021095;28;20050;-67
2021/12/31 10:51:47;;;;;;;;;;;;;;;14.81;68.97;97396.06;5013589;28;20075;-67
2021/12/31 10:54:48;;;;;;;4.18;2.88;;;;;;;15.19;67.88;97399.56;5015389;28;19924;-68
2021/12/31 10:57:34;;;;;;;3.47;2.28;;;;;;;13.54;73.68;97394.72;5012583;28;20038;-67
2021/12/31 11:00:00;;;;;;;3.80;2.40;;;;;;;13.87;75.97;97393.28;5001092;28;20034;-65
2021/12/31 11:02:25;;;;;;;3.17;2.10;;;;;;;13.84;75.97;97392.03;4995933;28;20442;-68
2021/12/31 11:04:51;;;;;;;6.20;2.53;;;;;;;14.44;72.83;97401.50;5017456;28;20045;-67
2021/12/31 11:07:17;;;;;;;2.80;2.00;;;;;;;14.42;72.54;97390.06;5014136;28;20044;-65
2021/12/31 11:09:43;;;;;;;3.55;2.13;;;;;;;15.56;67.95;97393.19;5020677;28;20065;-65
2021/12/31 11:12:11;;;;;;;5.15;2.20;;;;;;;16.08;64.26;97382.13;5014924;28;20132;-65
2021/12/31 11:14:37;;;;;;;5.28;2.15;;;;;;;15.82;65.43;97374.88;5020091;28;20132;-65
2021/12/31 11:17:03;;;;;;;2.92;1.88;;;;;;;15.65;66.32;97370.78;5017670;28;20033;-63
2021/12/31 11:19:29;;;;;;;6.05;1.80;;;;;;;16.41;64.37;97383.06;5017757;28;20306;-66
2021/12/31 11:21:55;;;;;;;3.80;2.05;;;;;;;15.99;64.55;97385.25;5020113;28;20042;-66
2021/12/31 11:24:27;;;;;;;3.95;2.15;;;;;;;15.24;66.89;97379.91;5015146;28;20048;-66
2021/12/31 11:26:52;;;;;;;3.63;1.90;;;;;;;15.72;66.21;97376.34;5018967;28;20037;-65
2021/12/31 11:29:18;;;;;;;4.63;2.30;;;;;;;15.48;67.37;97370.28;5014585;28;20395;-66
2021/12/31 11:31:43;;;;;;;2.97;1.73;;;;;;;15.52;67.49;97350.97;5019852;28;20037;-66
2021/12/31 11:34:11;;;;;;;2.97;1.90;;;;;;;15.17;68.42;97341.22;5014087;28;20049;-68